Time;durP1;ratioP1;P1;durP2;ratioP2;P2;SDS_P1;SDS_P2;PMS_P1;PMS_P2;Temp;Humidity;BMP_temperature;BMP_pressure;BME280_temperature;BME280_humidity;BME280_pressure;Samples;Min_cycle;Max_cycle;Signal;HPM_P1;HPM_P2
2022/03/25 00:01:20;;;;;;;77.47;48.15;;;;;;;12.80;50.05;102842.06;5043551;28;20048;-60
2022/03/25 00:03:45;;;;;;;80.28;48.50;;;;;;;12.75;49.73;102842.75;5050843;28;20021;-60
2022/03/25 00:06:11;;;;;;;75.13;48.08;;;;;;;12.75;49.71;102851.94;5047179;28;20422;-60
2022/03/25 00:08:36;;;;;;;74.72;47.60;;;;;;;12.70;49.88;102843.41;5049006;28;20018;-60
2022/03/25 00:11:04;;;;;;;73.60;47.22;;;;;;;12.66;50.07;102844.06;5034218;28;20384;-59
2022/03/25 00:13:30;;;;;;;74.30;46.47;;;;;;;12.62;50.27;102846.44;5042576;28;20044;-59
2022/03/25 00:15:56;;;;;;;76.53;47.20;;;;;;;12.55;50.23;102850.28;5033264;28;20049;-59
2022/03/25 00:18:22;;;;;;;76.22;46.67;;;;;;;12.52;50.15;102844.06;5035999;28;20033;-59
2022/03/25 00:20:49;;;;;;;75.75;46.45;;;;;;;12.49;50.07;102852.00;5048292;28;20114;-59
2022/03/25 00:23:14;;;;;;;76.30;47.33;;;;;;;12.43;50.28;102850.97;5046599;28;20025;-59
2022/03/25 00:25:39;;;;;;;76.50;45.33;;;;;;;12.44;50.52;102855.44;5039216;28;20032;-60
2022/03/25 00:28:05;;;;;;;76.28;46.33;;;;;;;12.41;50.26;102850.31;5037435;28;20064;-60
2022/03/25 00:30:30;;;;;;;73.95;46.28;;;;;;;12.38;50.43;102856.34;5037005;28;20061;-60
2022/03/25 00:32:55;;;;;;;70.50;46.80;;;;;;;12.36;50.37;102854.81;5040955;28;20053;-60
2022/03/25 00:35:21;;;;;;;74.90;46.38;;;;;;;12.31;50.64;102862.97;5051686;28;20043;-60
2022/03/25 00:37:47;;;;;;;74.90;46.85;;;;;;;12.28;50.77;102865.09;5051501;28;20033;-60
2022/03/25 00:40:12;;;;;;;72.65;46.22;;;;;;;12.23;50.66;102853.78;5051451;28;20048;-60
2022/03/25 00:42:38;;;;;;;78.97;48.30;;;;;;;12.21;50.81;102857.84;5053163;28;20037;-61
2022/03/25 00:45:05;;;;;;;81.25;48.92;;;;;;;12.16;50.86;102857.63;5049925;28;20029;-60
2022/03/25 00:47:30;;;;;;;79.35;46.55;;;;;;;12.18;50.84;102859.13;5033375;28;20036;-60
2022/03/25 00:49:55;;;;;;;70.95;45.95;;;;;;;12.16;50.83;102854.84;5034528;28;20385;-59
2022/03/25 00:52:21;;;;;;;71.22;44.85;;;;;;;12.12;50.72;102853.56;5048426;28;20496;-60
2022/03/25 00:54:47;;;;;;;79.20;46.47;;;;;;;12.06;50.90;102851.63;5052677;28;20099;-60
2022/03/25 00:57:12;;;;;;;73.45;46.50;;;;;;;12.05;50.96;102847.97;5052247;28;20095;-60
2022/03/25 00:59:43;;;;;;;70.03;44.92;;;;;;;12.02;51.03;102846.50;5034567;28;20041;-60
2022/03/25 01:02:08;;;;;;;72.32;45.75;;;;;;;11.97;50.85;102853.78;5036453;28;20091;-60
2022/03/25 01:04:34;;;;;;;72.38;45.33;;;;;;;11.93;50.85;102853.34;5046820;28;20423;-60
2022/03/25 01:06:59;;;;;;;70.75;43.95;;;;;;;11.88;51.13;102843.94;5053029;28;20017;-61
2022/03/25 01:09:25;;;;;;;78.57;46.45;;;;;;;11.82;50.95;102844.72;5054698;28;20036;-61
2022/03/25 01:11:56;;;;;;;73.20;46.00;;;;;;;11.84;50.98;102848.22;5051721;28;20033;-60
2022/03/25 01:14:21;;;;;;;73.50;45.05;;;;;;;11.73;51.05;102853.28;5034082;28;20049;-60
2022/03/25 01:16:47;;;;;;;73.10;45.13;;;;;;;11.71;51.07;102846.22;5033352;28;20560;-60
2022/03/25 01:19:13;;;;;;;74.13;46.97;;;;;;;11.70;51.03;102861.19;5047106;28;20025;-60
2022/03/25 01:21:39;;;;;;;74.72;45.55;;;;;;;11.65;51.36;102861.84;5052759;28;20040;-60
2022/03/25 01:24:04;;;;;;;73.30;46.83;;;;;;;11.63;51.22;102851.97;5052847;28;20029;-60
2022/03/25 01:26:30;;;;;;;71.63;44.55;;;;;;;11.66;51.03;102860.75;5046155;28;20029;-60
2022/03/25 01:28:55;;;;;;;73.13;44.35;;;;;;;11.66;51.00;102859.91;5051519;28;20025;-60
2022/03/25 01:31:21;;;;;;;72.50;44.67;;;;;;;11.64;50.99;102857.34;5042853;28;20013;-60
2022/03/25 01:33:46;;;;;;;73.38;44.47;;;;;;;11.64;50.78;102853.72;5031252;28;20176;-60
2022/03/25 01:36:12;;;;;;;72.75;44.53;;;;;;;11.60;50.83;102852.44;5048662;28;20033;-61
2022/03/25 01:38:38;;;;;;;73.97;43.72;;;;;;;11.62;50.90;102850.28;5051961;28;20511;-61
2022/03/25 01:41:07;;;;;;;71.32;43.67;;;;;;;11.61;50.73;102845.78;5044782;28;20030;-61
2022/03/25 01:43:33;;;;;;;67.32;42.72;;;;;;;11.62;50.69;102850.28;5048048;28;20033;-61
2022/03/25 01:45:58;;;;;;;75.15;43.45;;;;;;;11.62;50.70;102847.50;5052258;28;20127;-61
2022/03/25 01:48:24;;;;;;;70.18;42.85;;;;;;;11.60;50.48;102832.97;5049522;28;20080;-60
2022/03/25 01:50:49;;;;;;;74.50;44.17;;;;;;;11.55;50.12;102841.91;5048707;28;20025;-60
2022/03/25 01:53:21;;;;;;;69.10;42.35;;;;;;;11.49;50.56;102840.84;5032745;28;20033;-60
2022/03/25 01:55:53;;;;;;;69.70;43.47;;;;;;;11.49;50.36;102849.19;5033862;28;20103;-61
2022/03/25 01:58:22;;;;;;;68.80;42.05;;;;;;;11.44;50.28;102845.34;5032349;28;20057;-60
2022/03/25 02:00:48;;;;;;;73.18;42.72;;;;;;;11.41;50.35;102848.53;5046676;28;20021;-61
2022/03/25 02:03:14;;;;;;;69.80;40.53;;;;;;;11.40;50.16;102850.47;5042882;28;20025;-60
2022/03/25 02:05:43;;;;;;;64.00;40.72;;;;;;;11.45;50.16;102847.91;5050359;28;20082;-60
2022/03/25 02:08:09;;;;;;;66.07;41.60;;;;;;;11.39;49.91;102851.50;5049411;28;20041;-60
2022/03/25 02:10:35;;;;;;;62.97;40.08;;;;;;;11.41;49.61;102857.72;5046849;28;20037;-61
2022/03/25 02:13:04;;;;;;;60.47;39.00;;;;;;;11.38;49.64;102849.81;5031954;28;20033;-60
2022/03/25 02:15:34;;;;;;;67.88;40.13;;;;;;;11.30;49.78;102847.22;5038856;28;20040;-60
2022/03/25 02:18:14;;;;;;;62.35;39.42;;;;;;;11.39;49.22;102845.09;5037687;28;20108;-60
2022/03/25 02:20:42;;;;;;;64.03;39.72;;;;;;;11.31;49.15;102843.34;5047999;28;20025;-60
2022/03/25 02:23:09;;;;;;;60.05;38.47;;;;;;;11.30;49.08;102842.50;5049093;28;20380;-60
2022/03/25 02:25:35;;;;;;;57.53;37.15;;;;;;;11.34;48.76;102840.16;5050116;28;20021;-60
2022/03/25 02:28:03;;;;;;;61.88;37.03;;;;;;;11.32;48.76;102845.09;5049668;28;20049;-60
2022/03/25 02:30:29;;;;;;;55.40;36.65;;;;;;;11.33;48.27;102846.81;5041719;28;20048;-61
2022/03/25 02:33:01;;;;;;;61.80;36.13;;;;;;;11.28;47.91;102846.59;5049548;28;20033;-61
2022/03/25 02:35:35;;;;;;;58.65;37.03;;;;;;;11.37;48.05;102838.91;5045193;28;20863;-60
2022/03/25 02:38:01;;;;;;;56.08;36.83;;;;;;;11.32;47.82;102845.09;5030963;28;20033;-60
2022/03/25 02:40:26;;;;;;;55.65;36.78;;;;;;;11.27;47.75;102842.06;5032217;28;20034;-60
2022/03/25 02:42:51;;;;;;;60.65;38.17;;;;;;;11.25;47.84;102839.50;5044832;28;20028;-60
2022/03/25 02:45:21;;;;;;;54.53;36.25;;;;;;;11.16;47.98;102838.00;5051584;28;20113;-60
2022/03/25 02:47:52;;;;;;;60.85;36.63;;;;;;;11.13;47.90;102837.53;5036179;28;20033;-60
2022/03/25 02:50:17;;;;;;;57.38;36.00;;;;;;;11.12;47.63;102839.47;5048710;28;20388;-60
2022/03/25 02:52:43;;;;;;;60.80;36.35;;;;;;;11.11;47.68;102850.78;5040728;28;20021;-60
2022/03/25 02:55:08;;;;;;;58.67;36.05;;;;;;;11.09;47.64;102844.59;5051175;28;20048;-61
2022/03/25 02:57:35;;;;;;;56.42;36.38;;;;;;;11.04;47.67;102837.72;5050167;28;20039;-61
2022/03/25 03:00:01;;;;;;;58.75;36.22;;;;;;;11.03;47.70;102841.56;5047213;28;20033;-60
2022/03/25 03:02:26;;;;;;;55.95;36.08;;;;;;;10.99;47.71;102843.03;5047468;28;20131;-60
2022/03/25 03:04:52;;;;;;;53.20;34.70;;;;;;;10.93;48.08;102838.31;5050563;28;20060;-60
2022/03/25 03:07:20;;;;;;;58.38;36.20;;;;;;;10.80;48.17;102841.88;5049511;28;20017;-60
2022/03/25 03:09:45;;;;;;;56.00;35.20;;;;;;;10.80;47.96;102847.44;5049874;28;20130;-60
2022/03/25 03:12:10;;;;;;;57.25;36.45;;;;;;;10.82;48.15;102841.69;5051372;28;20057;-60
2022/03/25 03:14:39;;;;;;;59.90;36.67;;;;;;;10.76;47.77;102846.13;5051307;28;20026;-60
2022/03/25 03:17:04;;;;;;;59.80;36.40;;;;;;;10.71;48.03;102845.91;5031533;28;20034;-60
2022/03/25 03:19:31;;;;;;;58.72;36.33;;;;;;;10.61;47.96;102848.22;5037944;28;20051;-60
2022/03/25 03:21:56;;;;;;;56.65;35.70;;;;;;;10.60;48.45;102840.06;5039989;28;20051;-60
2022/03/25 03:24:21;;;;;;;57.97;34.53;;;;;;;10.62;48.21;102838.81;5045902;28;20380;-61
2022/03/25 03:26:47;;;;;;;58.50;34.85;;;;;;;10.61;47.68;102839.88;5036014;28;20464;-61
2022/03/25 03:29:13;;;;;;;59.70;36.33;;;;;;;10.53;47.94;102849.22;5041739;28;20490;-61
2022/03/25 03:31:38;;;;;;;59.78;36.22;;;;;;;10.55;47.95;102841.53;5045575;28;20026;-60
2022/03/25 03:34:04;;;;;;;54.65;36.42;;;;;;;10.56;47.80;102839.63;5030545;28;20033;-60
2022/03/25 03:36:29;;;;;;;58.33;35.67;;;;;;;10.51;47.67;102843.00;5035736;28;20037;-60
2022/03/25 03:38:54;;;;;;;58.85;36.30;;;;;;;10.43;48.15;102845.94;5050488;28;20388;-60
2022/03/25 03:41:19;;;;;;;58.40;36.65;;;;;;;10.45;48.11;102842.94;5050122;28;20401;-60
2022/03/25 03:43:45;;;;;;;60.90;37.08;;;;;;;10.39;47.95;102844.63;5050260;28;20029;-60
2022/03/25 03:46:10;;;;;;;53.90;35.15;;;;;;;10.32;48.54;102840.97;5032585;28;20484;-60
2022/03/25 03:48:35;;;;;;;54.88;35.30;;;;;;;10.27;48.05;102832.38;5050742;28;20037;-61
2022/03/25 03:51:01;;;;;;;54.72;36.55;;;;;;;10.28;48.69;102836.88;5035850;28;20804;-60
2022/03/25 03:53:29;;;;;;;57.47;36.58;;;;;;;10.21;48.39;102835.94;5030228;28;20038;-61
2022/03/25 03:55:54;;;;;;;63.03;36.08;;;;;;;10.20;48.46;102845.31;5044407;28;20052;-60
2022/03/25 03:58:22;;;;;;;60.03;37.75;;;;;;;10.22;47.83;102846.00;5050197;28;20061;-61
2022/03/25 04:00:50;;;;;;;60.70;36.47;;;;;;;10.15;48.12;102845.09;5045282;28;20142;-61
2022/03/25 04:03:16;;;;;;;59.58;37.30;;;;;;;10.16;48.02;102844.00;5051368;28;20100;-60
2022/03/25 04:05:42;;;;;;;56.40;37.08;;;;;;;10.12;48.36;102837.16;5053728;28;20150;-61
2022/03/25 04:08:08;;;;;;;58.40;36.85;;;;;;;10.07;48.42;102841.38;5053911;28;20021;-61
2022/03/25 04:10:36;;;;;;;60.45;38.15;;;;;;;10.02;48.82;102843.91;5053600;28;20040;-60
2022/03/25 04:13:01;;;;;;;59.70;36.95;;;;;;;9.91;48.44;102836.13;5053190;28;20172;-60
2022/03/25 04:15:27;;;;;;;57.70;35.78;;;;;;;9.93;48.20;102847.88;5052726;28;20107;-61
2022/03/25 04:17:53;;;;;;;56.85;35.90;;;;;;;9.89;48.29;102841.00;5040133;28;20511;-60
2022/03/25 04:20:18;;;;;;;54.30;36.72;;;;;;;9.87;48.72;102845.91;5051202;28;20357;-61
2022/03/25 04:22:45;;;;;;;60.83;37.85;;;;;;;9.86;48.46;102846.94;5053012;28;20429;-60
2022/03/25 04:25:11;;;;;;;61.20;38.08;;;;;;;9.81;48.97;102846.69;5053508;28;20086;-60
2022/03/25 04:27:51;;;;;;;53.92;35.85;;;;;;;9.80;48.92;102856.94;5053470;28;20036;-61
2022/03/25 04:30:18;;;;;;;59.38;37.05;;;;;;;9.75;48.43;102855.84;5053023;28;20017;-60
2022/03/25 04:32:43;;;;;;;59.22;36.90;;;;;;;9.67;49.06;102855.94;5051621;28;20070;-61
2022/03/25 04:35:09;;;;;;;56.97;37.35;;;;;;;9.64;49.02;102851.69;5052210;28;20025;-60
2022/03/25 04:37:34;;;;;;;61.50;37.17;;;;;;;9.61;49.14;102857.59;5052706;28;20487;-60
2022/03/25 04:40:06;;;;;;;60.25;37.95;;;;;;;9.58;48.77;102864.41;5053116;28;20024;-61
2022/03/25 04:42:31;;;;;;;61.83;37.42;;;;;;;9.58;49.39;102861.63;5051446;28;20025;-61
2022/03/25 04:44:57;;;;;;;60.97;36.97;;;;;;;9.57;49.29;102872.91;5053165;28;20036;-60
2022/03/25 04:47:25;;;;;;;58.78;37.22;;;;;;;9.52;49.13;102859.66;5053401;28;20069;-60
2022/03/25 04:49:51;;;;;;;58.85;38.35;;;;;;;9.48;48.63;102857.47;5050442;28;20033;-60
2022/03/25 04:52:16;;;;;;;58.17;38.00;;;;;;;9.48;49.22;102861.09;5043684;28;20025;-61
2022/03/25 04:54:41;;;;;;;63.25;38.72;;;;;;;9.46;49.16;102860.44;5050879;28;20033;-60
2022/03/25 04:57:06;;;;;;;57.75;36.78;;;;;;;9.44;48.99;102859.78;5050101;28;20479;-60
2022/03/25 04:59:35;;;;;;;57.58;36.95;;;;;;;9.43;48.90;102858.06;5048692;28;20028;-60
2022/03/25 05:02:01;;;;;;;61.10;37.08;;;;;;;9.39;49.45;102870.56;5051469;28;20037;-59
2022/03/25 05:04:27;;;;;;;58.55;36.72;;;;;;;9.32;49.53;102869.66;5052280;28;20029;-60
2022/03/25 05:06:52;;;;;;;60.63;37.97;;;;;;;9.31;49.22;102867.94;5044939;28;20471;-60
2022/03/25 05:09:17;;;;;;;63.50;37.70;;;;;;;9.29;49.51;102867.28;5043381;28;20033;-60
2022/03/25 05:11:43;;;;;;;63.50;38.67;;;;;;;9.20;49.62;102865.69;5050642;28;20032;-60
2022/03/25 05:14:10;;;;;;;63.42;38.70;;;;;;;9.16;49.31;102876.31;5050899;28;20035;-60
2022/03/25 05:16:36;;;;;;;67.28;38.53;;;;;;;9.16;49.80;102869.91;5051675;28;20021;-60
2022/03/25 05:19:02;;;;;;;62.08;38.42;;;;;;;9.11;49.88;102870.47;5051897;28;20028;-60
2022/03/25 05:21:30;;;;;;;63.35;37.92;;;;;;;9.14;49.64;102872.00;5034783;28;20450;-61
2022/03/25 05:23:55;;;;;;;67.47;38.80;;;;;;;9.13;49.74;102881.38;5033393;28;20060;-60
2022/03/25 05:26:23;;;;;;;63.53;39.63;;;;;;;9.10;49.56;102869.59;5049156;28;20064;-60
2022/03/25 05:28:48;;;;;;;62.45;38.35;;;;;;;9.05;49.61;102871.25;5054580;28;20148;-60
2022/03/25 05:31:13;;;;;;;63.53;39.47;;;;;;;9.04;50.01;102867.63;5047698;28;20107;-60
2022/03/25 05:33:39;;;;;;;64.93;39.65;;;;;;;8.98;50.14;102870.31;5044965;28;20037;-60
2022/03/25 05:36:05;;;;;;;67.28;38.60;;;;;;;8.95;49.88;102868.78;5050951;28;20036;-60
2022/03/25 05:38:33;;;;;;;59.60;38.35;;;;;;;8.91;50.04;102875.75;5050894;28;20036;-60
2022/03/25 05:40:58;;;;;;;63.70;38.45;;;;;;;8.85;50.17;102873.78;5048159;28;20037;-60
2022/03/25 05:43:24;;;;;;;63.10;39.30;;;;;;;8.84;50.14;102872.03;5051036;28;20037;-59
2022/03/25 05:45:49;;;;;;;64.55;40.50;;;;;;;8.87;50.03;102871.66;5048900;28;20496;-60
2022/03/25 05:48:17;;;;;;;63.72;38.20;;;;;;;8.82;50.13;102885.22;5034703;28;20029;-60
2022/03/25 05:50:43;;;;;;;62.30;38.28;;;;;;;8.75;50.66;102882.34;5051596;28;20064;-60
2022/03/25 05:53:08;;;;;;;63.10;39.58;;;;;;;8.79;50.74;102891.13;5047844;28;20186;-61
2022/03/25 05:55:33;;;;;;;61.60;38.15;;;;;;;8.81;50.97;102883.50;5052103;28;20054;-61
2022/03/25 05:58:00;;;;;;;63.85;39.05;;;;;;;8.79;50.89;102883.69;5045825;28;20029;-60
2022/03/25 06:00:25;;;;;;;68.60;39.65;;;;;;;8.78;51.24;102884.75;5033211;28;20034;-64
2022/03/25 06:02:50;;;;;;;63.30;38.53;;;;;;;8.80;50.61;102893.75;5049457;28;20106;-60
2022/03/25 06:05:16;;;;;;;63.30;39.40;;;;;;;8.81;50.98;102889.91;5049224;28;20044;-60
2022/03/25 06:07:44;;;;;;;65.32;38.92;;;;;;;8.79;51.42;102891.13;5039024;28;20029;-60
2022/03/25 06:10:14;;;;;;;66.85;39.47;;;;;;;8.79;50.98;102886.47;5046615;28;20063;-60
2022/03/25 06:12:40;;;;;;;64.15;38.13;;;;;;;8.84;51.02;102895.06;5051042;28;20029;-60
2022/03/25 06:15:09;;;;;;;63.90;38.50;;;;;;;8.87;51.16;102890.19;5039321;28;20033;-60
2022/03/25 06:17:42;;;;;;;62.97;39.42;;;;;;;8.91;51.11;102895.13;5048316;28;20029;-61
2022/03/25 06:20:08;;;;;;;64.88;39.53;;;;;;;8.91;51.10;102899.81;5049098;28;20491;-60
2022/03/25 06:22:40;;;;;;;65.50;38.90;;;;;;;8.94;51.00;102908.59;5031106;28;20037;-60
2022/03/25 06:25:11;;;;;;;67.78;39.97;;;;;;;8.97;50.62;102907.38;5042164;28;20088;-61
2022/03/25 06:27:47;;;;;;;69.28;40.03;;;;;;;9.03;50.98;102901.91;5046497;28;20036;-60
2022/03/25 06:30:13;;;;;;;68.32;40.55;;;;;;;9.05;51.16;102907.28;5032477;28;20068;-60
2022/03/25 06:32:39;;;;;;;70.32;41.05;;;;;;;9.06;51.26;102906.22;5050636;28;20477;-60
2022/03/25 06:35:05;;;;;;;71.03;42.83;;;;;;;9.12;50.89;102912.88;5035270;28;20044;-60
2022/03/25 06:37:31;;;;;;;72.32;44.13;;;;;;;9.19;51.16;102922.13;5034342;28;20052;-59
2022/03/25 06:39:57;;;;;;;67.80;43.88;;;;;;;9.27;50.92;102919.25;5035361;28;20088;-59
2022/03/25 06:42:23;;;;;;;71.40;43.72;;;;;;;9.28;50.87;102926.53;5046680;28;20032;-59
2022/03/25 06:44:48;;;;;;;71.45;42.97;;;;;;;9.36;50.31;102920.88;5046233;28;20657;-59
2022/03/25 06:47:14;;;;;;;76.03;44.88;;;;;;;9.46;50.75;102924.19;5050737;28;20021;-58
2022/03/25 06:49:39;;;;;;;71.10;43.28;;;;;;;9.55;50.08;102911.94;5046733;28;20025;-60
2022/03/25 06:52:05;;;;;;;77.78;46.53;;;;;;;9.62;50.21;102913.91;5041236;28;20037;-59
2022/03/25 06:54:30;;;;;;;73.57;46.25;;;;;;;9.59;49.96;102916.03;5040984;28;20029;-59
2022/03/25 06:56:56;;;;;;;76.25;46.53;;;;;;;9.61;50.11;102920.53;5028708;28;20043;-60
2022/03/25 06:59:23;;;;;;;80.53;48.40;;;;;;;9.62;50.67;102916.69;5029979;28;20045;-60
2022/03/25 07:01:49;;;;;;;77.75;47.85;;;;;;;9.68;50.61;102924.22;5043676;28;20088;-59
2022/03/25 07:04:15;;;;;;;76.22;47.17;;;;;;;9.69;50.05;102921.25;5041860;28;20116;-60
2022/03/25 07:06:48;;;;;;;75.43;48.53;;;;;;;9.82;49.90;102926.06;5047346;28;20052;-59
2022/03/25 07:09:13;;;;;;;;;;;;;;;10.03;49.58;102933.56;5040405;28;20033;-60
2022/03/25 07:11:42;;;;;;;78.88;49.03;;;;;;;9.91;50.04;102933.22;5039222;28;19979;-60
2022/03/25 07:14:08;;;;;;;80.38;50.08;;;;;;;9.90;50.03;102934.25;5038459;28;20159;-60
2022/03/25 07:16:33;;;;;;;80.13;49.92;;;;;;;9.96;50.06;102938.16;5051358;28;20040;-60
2022/03/25 07:19:01;;;;;;;82.90;51.72;;;;;;;10.00;50.31;102943.13;5054879;28;20037;-60
2022/03/25 07:21:26;;;;;;;81.95;51.08;;;;;;;10.04;50.32;102941.66;5039297;28;20036;-60
2022/03/25 07:23:52;;;;;;;83.20;51.58;;;;;;;10.08;50.25;102934.66;5038820;28;20112;-60
2022/03/25 07:26:17;;;;;;;85.15;51.80;;;;;;;10.09;50.49;102939.16;5045145;28;20032;-60
2022/03/25 07:28:47;;;;;;;78.55;50.80;;;;;;;10.17;50.19;102945.63;5041701;28;20132;-60
2022/03/25 07:31:12;;;;;;;86.88;52.47;;;;;;;10.22;50.36;102949.53;5033122;28;20396;-60
2022/03/25 07:33:37;;;;;;;81.80;52.63;;;;;;;10.23;50.41;102944.84;5032295;28;20021;-61
2022/03/25 07:36:03;;;;;;;83.18;53.03;;;;;;;10.32;49.99;102952.84;5046089;28;20060;-61
2022/03/25 07:38:28;;;;;;;83.15;53.28;;;;;;;10.37;50.26;102960.56;5046513;28;20033;-60
2022/03/25 07:40:55;;;;;;;80.43;52.45;;;;;;;10.40;50.71;102945.44;5044198;28;20025;-61
2022/03/25 07:43:20;;;;;;;83.97;53.60;;;;;;;10.44;50.34;102961.47;5048864;28;20043;-60
2022/03/25 07:45:49;;;;;;;86.55;53.85;;;;;;;10.51;50.04;102964.31;5035041;28;20029;-60
2022/03/25 07:48:14;;;;;;;83.93;53.97;;;;;;;10.58;50.00;102959.69;5044926;28;20537;-61
2022/03/25 07:50:40;;;;;;;86.95;53.22;;;;;;;10.63;50.28;102961.84;5034596;28;20022;-60
2022/03/25 07:53:05;;;;;;;82.22;54.05;;;;;;;10.71;50.15;102964.47;5049967;28;20047;-60
2022/03/25 07:55:31;;;;;;;82.30;54.03;;;;;;;10.81;50.11;102970.53;5051517;28;20196;-60
2022/03/25 07:57:57;;;;;;;86.07;54.53;;;;;;;10.88;49.47;102976.13;5037309;28;20032;-60
2022/03/25 08:00:25;;;;;;;83.47;53.67;;;;;;;10.97;49.38;102977.69;5048761;28;20086;-60
2022/03/25 08:02:52;;;;;;;84.13;54.58;;;;;;;10.99;49.84;102984.75;5042533;28;20037;-60
2022/03/25 08:05:18;;;;;;;85.05;54.38;;;;;;;11.16;49.21;102990.84;5052918;28;20104;-60
2022/03/25 08:07:54;;;;;;;87.68;56.35;;;;;;;11.26;49.20;102994.09;5051473;28;20052;-60
2022/03/25 08:10:25;;;;;;;83.13;53.38;;;;;;;11.38;49.09;102986.03;5050762;28;20198;-60
2022/03/25 08:12:51;;;;;;;82.43;54.40;;;;;;;11.53;48.56;102986.75;5046819;28;20071;-60
2022/03/25 08:15:17;;;;;;;80.80;52.90;;;;;;;11.66;48.30;102987.88;5038068;28;20464;-60
2022/03/25 08:17:57;;;;;;;80.55;53.70;;;;;;;11.78;47.86;102984.25;5040070;28;20468;-60
2022/03/25 08:20:30;;;;;;;79.20;52.15;;;;;;;11.90;47.19;102992.91;5051188;28;20037;-59
2022/03/25 08:22:57;;;;;;;81.75;51.72;;;;;;;12.01;46.93;102992.28;5040209;28;20021;-60
2022/03/25 08:28:07;;;;;;;78.18;51.22;;;;;;;12.20;46.76;102998.97;5046450;28;20052;-62
2022/03/25 08:30:33;;;;;;;77.28;50.88;;;;;;;12.35;46.22;103000.72;5046073;28;20029;-60
2022/03/25 08:33:01;;;;;;;79.78;50.03;;;;;;;12.41;45.74;103005.41;5055480;28;20052;-60
2022/03/25 08:35:28;;;;;;;77.20;49.13;;;;;;;12.51;45.79;103015.06;5052198;28;20036;-60
2022/03/25 08:37:54;;;;;;;75.50;48.60;;;;;;;12.62;45.22;103018.31;5055331;28;20526;-61
2022/03/25 08:40:21;;;;;;;73.10;48.88;;;;;;;12.73;44.58;103003.69;5041639;28;20035;-59
2022/03/25 08:42:47;;;;;;;79.82;50.03;;;;;;;12.79;44.29;103008.44;5049955;28;20029;-60
2022/03/25 08:45:15;;;;;;;76.70;49.15;;;;;;;12.88;44.65;103007.13;5048318;28;20031;-60
2022/03/25 08:47:41;;;;;;;75.85;49.08;;;;;;;13.02;44.69;103002.41;5045277;28;20496;-60
2022/03/25 08:50:07;;;;;;;73.05;46.05;;;;;;;13.16;44.45;103009.63;5041356;28;20075;-59
2022/03/25 08:52:33;;;;;;;75.15;48.50;;;;;;;13.32;43.75;102997.19;5052228;28;20067;-60
2022/03/25 08:54:58;;;;;;;75.75;48.88;;;;;;;13.39;43.93;102997.19;5046157;28;20068;-60
2022/03/25 08:57:23;;;;;;;77.50;48.40;;;;;;;13.39;42.94;103011.97;5045866;28;20056;-59
2022/03/25 08:59:49;;;;;;;73.78;45.80;;;;;;;13.48;42.88;103007.88;5040719;28;20469;-61
2022/03/25 09:02:14;;;;;;;74.28;44.85;;;;;;;13.54;42.33;103006.13;5041354;28;20202;-59
2022/03/25 09:04:40;;;;;;;76.38;47.53;;;;;;;13.67;41.94;103011.66;5044280;28;20041;-60
2022/03/25 09:07:05;;;;;;;72.38;43.75;;;;;;;13.70;40.84;103010.38;5048552;28;20041;-60
2022/03/25 09:09:31;;;;;;;71.68;44.30;;;;;;;13.81;41.25;103012.47;5050216;28;20576;-61
2022/03/25 09:11:56;;;;;;;72.50;45.35;;;;;;;13.86;41.32;103015.44;5046762;28;20111;-60
2022/03/25 09:14:22;;;;;;;71.80;44.35;;;;;;;13.95;40.25;103013.22;5045808;28;20040;-60
2022/03/25 09:16:47;;;;;;;68.55;43.13;;;;;;;14.05;42.17;103018.34;5039494;28;20064;-61
2022/03/25 09:19:15;;;;;;;72.68;43.85;;;;;;;14.08;39.78;103020.69;5046216;28;20033;-59
2022/03/25 09:21:40;;;;;;;73.00;43.90;;;;;;;14.11;39.90;103023.91;5043115;28;20526;-60
2022/03/25 09:24:09;;;;;;;72.00;43.45;;;;;;;14.17;39.07;103017.41;5046838;28;20029;-61
2022/03/25 09:26:35;;;;;;;70.32;43.55;;;;;;;14.21;39.88;103027.03;5046131;28;20021;-61
2022/03/25 09:29:00;;;;;;;67.82;42.70;;;;;;;14.33;39.85;103024.38;5045343;28;20031;-61
2022/03/25 09:31:25;;;;;;;67.15;41.17;;;;;;;14.38;39.29;103027.38;5045713;28;20032;-61
2022/03/25 09:35:08;;;;;;;64.00;40.25;;;;;;;14.48;38.49;103018.50;5050828;28;20068;-61
2022/03/25 09:36:36;;;;;;;65.10;41.08;;;;;;;14.53;38.57;103023.41;5049774;28;20052;-61
2022/03/25 09:39:01;;;;;;;61.92;38.28;;;;;;;14.55;37.99;103024.91;5048424;28;20029;-60
2022/03/25 09:41:26;;;;;;;66.25;39.60;;;;;;;14.59;37.65;103022.53;5047438;28;20039;-60
2022/03/25 09:43:51;;;;;;;67.10;39.90;;;;;;;14.65;37.64;103018.81;5050533;28;21355;-60
2022/03/25 09:46:17;;;;;;;67.85;40.45;;;;;;;14.73;38.11;103021.31;5043461;28;20121;-60
2022/03/25 09:48:42;;;;;;;60.05;39.03;;;;;;;14.80;37.70;103012.88;5051465;28;20033;-60
2022/03/25 09:51:07;;;;;;;59.22;37.65;;;;;;;14.89;37.42;103012.34;5051668;28;20349;-61
2022/03/25 09:53:32;;;;;;;59.90;34.53;;;;;;;14.89;36.08;103009.56;5049634;28;20033;-60
2022/03/25 09:55:58;;;;;;;61.83;35.80;;;;;;;14.93;36.17;103015.53;5050298;28;20029;-60
2022/03/25 09:58:28;;;;;;;55.00;34.50;;;;;;;14.93;36.10;103009.94;5049149;28;20112;-61
2022/03/25 10:00:53;;;;;;;52.85;32.45;;;;;;;14.99;35.87;103011.84;5043922;28;20033;-61
2022/03/25 10:03:37;;;;;;;55.25;32.80;;;;;;;15.09;37.02;103011.28;5018195;28;20083;-62
2022/03/25 10:06:23;;;;;;;50.10;31.58;;;;;;;15.13;36.24;103010.63;5029605;28;20416;-62
2022/03/25 10:08:59;;;;;;;53.10;32.20;;;;;;;15.19;35.90;103011.63;5028924;28;20178;-61
2022/03/25 10:11:30;;;;;;;49.38;31.15;;;;;;;15.20;34.76;103008.59;5024834;28;20080;-60
2022/03/25 10:14:18;;;;;;;50.85;30.50;;;;;;;15.24;35.81;103011.78;5025213;28;20036;-61
2022/03/25 10:16:45;;;;;;;52.67;31.45;;;;;;;15.25;34.63;103007.91;5027770;28;20041;-61
2022/03/25 10:19:11;;;;;;;45.63;30.02;;;;;;;15.32;34.66;103005.03;5022956;28;20438;-61
2022/03/25 10:21:57;;;;;;;39.55;25.98;;;;;;;15.58;38.57;103009.47;5024471;28;20018;-61
2022/03/25 10:24:41;;;;;;;42.80;25.38;;;;;;;15.81;38.83;103012.44;5027950;28;20046;-62
2022/03/25 10:27:07;;;;;;;33.85;21.20;;;;;;;16.25;39.64;103007.47;5026035;28;20033;-61
2022/03/25 10:29:35;;;;;;;37.75;24.50;;;;;;;16.38;38.50;103003.63;5025175;28;20047;-61
2022/03/25 10:32:29;;;;;;;49.88;29.88;;;;;;;16.35;36.93;103004.13;5027250;28;20029;-61
2022/03/25 10:35:10;;;;;;;47.80;30.55;;;;;;;16.40;34.86;103002.28;5015399;28;20041;-61
2022/03/25 10:37:54;;;;;;;49.67;29.15;;;;;;;16.32;33.16;102996.19;5028154;28;20029;-61
2022/03/25 10:40:19;;;;;;;49.20;30.67;;;;;;;16.20;33.14;102993.34;5022302;28;20036;-62
2022/03/25 10:43:09;;;;;;;49.25;29.88;;;;;;;16.12;34.70;103000.13;5023277;28;20104;-61
2022/03/25 10:45:41;;;;;;;52.70;30.85;;;;;;;16.14;33.99;102999.88;5027137;28;20161;-62
2022/03/25 10:48:11;;;;;;;55.33;30.25;;;;;;;16.19;33.97;102998.09;5022135;28;20025;-61
2022/03/25 10:50:53;;;;;;;49.05;28.83;;;;;;;16.20;34.16;102993.34;5026710;28;20026;-61
2022/03/25 10:53:21;;;;;;;45.60;28.38;;;;;;;16.15;33.30;102994.06;5022974;28;20033;-61
2022/03/25 10:55:54;;;;;;;48.30;28.35;;;;;;;16.17;33.27;102996.63;5029559;28;20033;-61
2022/03/25 10:58:19;;;;;;;48.55;29.58;;;;;;;16.17;33.68;102991.03;5033114;28;20036;-61
2022/03/25 11:00:45;;;;;;;49.38;29.20;;;;;;;16.15;34.08;102990.38;5029263;28;20029;-61
2022/03/25 11:03:12;;;;;;;50.80;29.27;;;;;;;16.19;33.21;102991.63;5031274;28;20037;-61
2022/03/25 11:05:39;;;;;;;47.13;29.35;;;;;;;16.20;33.42;102994.19;5030131;28;20028;-60
2022/03/25 11:08:05;;;;;;;48.63;30.67;;;;;;;16.20;33.40;102987.75;5027094;28;20116;-61
2022/03/25 11:10:32;;;;;;;51.40;30.38;;;;;;;16.28;33.38;102992.16;5028183;28;20254;-62
2022/03/25 11:12:57;;;;;;;47.50;29.45;;;;;;;16.31;33.49;102989.72;5025688;28;20037;-62
2022/03/25 11:15:23;;;;;;;48.95;30.02;;;;;;;16.28;33.05;102990.19;5033055;28;20242;-61